Wednesday, October 18, 2017, 3:40 AM EDT
Back to Local

KW99, Petersburg, Grant County Airport

Location: Petersburg, WV, United States Lat: 38.983
Local Time: 3:40 AM EDT ( 7:40 GMT) Lon: -79.133
Time Zone: US/Eastern Elev: 961 ft

Show me the last for .
Show Coded

Time T Td Feel RH Dir Speed Gust Alt SLP Vis Weather Sky Remarks
2017-10-18 03:15 35 34 - 96 - Calm - 30.35 - 10 CLR None
2017-10-18 02:55 35 34 - 96 - Calm - 30.34 - 10 CLR None
2017-10-18 02:35 36 36 - 97 - Calm - 30.35 - 10 CLR None
2017-10-18 02:15 36 35 - 97 - Calm - 30.35 - 10 CLR None
2017-10-18 01:55 36 35 - 97 - Calm - 30.34 - 10 CLR 6-hr Min Temp (2am): 35.4°F
6-hr Max Temp (2am): 47.5°F
24-hr Min Temp (2am): 32.0°F
24-hr Max Temp (2am): 64.4°F
2017-10-18 01:35 36 35 - 96 - Calm - 30.34 - 10 CLR None
2017-10-18 01:15 37 36 - 96 - Calm - 30.34 - 10 CLR None
2017-10-18 00:55 38 37 - 96 - Calm - 30.34 - 10 CLR None
2017-10-18 00:40 38 37 - 94 - Calm - 30.33 - 10 CLR None
2017-10-18 00:15 37 36 - 96 - Calm - 30.33 - 10 CLR None
2017-10-17 23:55 39 38 - 96 - Calm - 30.33 - 10 CLR None
2017-10-17 23:35 39 37 - 93 - Calm - 30.34 - 10 CLR None
2017-10-17 23:15 39 37 - 93 - Calm - 30.33 - 10 CLR None
2017-10-17 22:55 39 38 - 93 - Calm - 30.34 - 10 CLR None
2017-10-17 22:35 40 38 - 94 - Calm - 30.33 - 10 CLR None
2017-10-17 22:15 41 38 - 90 - Calm - 30.33 - 10 CLR None
2017-10-17 21:50 41 38 - 90 - Calm - 30.32 - 10 CLR None
2017-10-17 21:35 43 40 - 88 - Calm - 30.31 - 10 CLR None
2017-10-17 21:15 43 40 - 87 - Calm - 30.31 - 10 CLR None
2017-10-17 20:55 44 41 - 87 - Calm - 30.30 - 10 CLR None
2017-10-17 20:35 45 40 - 81 - Calm - 30.29 - 10 CLR None
2017-10-17 20:15 46 41 - 80 - Calm - 30.29 - 10 CLR None
2017-10-17 19:55 48 40 - 75 - Calm - 30.29 - 10 CLR 6-hr Min Temp (8pm): 47.5°F
6-hr Max Temp (8pm): 64.4°F
2017-10-17 19:35 48 41 - 76 - Calm - 30.28 - 10 CLR None
2017-10-17 19:15 48 42 - 77 - Calm - 30.28 - 10 CLR None
2017-10-17 18:55 50 42 48 72 290° 6 - 30.28 - 10 CLR None
2017-10-17 18:35 53 42 - 67 - Calm - 30.27 - 10 CLR None
2017-10-17 18:15 58 42 - 55 - Calm - 30.26 - 10 CLR None
2017-10-17 17:55 62 39 - 41 - Calm - 30.26 - 10 CLR None
2017-10-17 17:35 64 35 - 33 - Calm - 30.26 - 10 CLR None
2017-10-17 17:15 64 36 - 35 - Calm - 30.26 - 10 CLR None
2017-10-17 16:55 64 35 - 33 - Calm - 30.26 - 10 CLR None
2017-10-17 16:35 64 37 - 36 - Calm - 30.26 - 10 CLR None
2017-10-17 16:15 64 36 - 36 - Calm - 30.27 - 10 CLR None
2017-10-17 15:55 63 37 - 37 - Calm - 30.28 - 10 CLR None
2017-10-17 15:35 62 36 - 37 - Calm - 30.28 - 10 CLR None
2017-10-17 15:15 62 37 - 38 - Calm - 30.28 - 10 CLR None
2017-10-17 14:55 62 37 - 38 90° 3 - 30.28 - 10 CLR None
2017-10-17 14:35 61 36 - 39 - Calm - 30.29 - 10 CLR None
2017-10-17 14:15 61 36 - 39 - Calm - 30.30 - 10 CLR None
2017-10-17 13:55 60 36 - 40 - Calm - 30.31 - 10 CLR 6-hr Min Temp (2pm): 32.9°F
6-hr Max Temp (2pm): 60.3°F
2017-10-17 13:35 59 35 - 40 - Calm - 30.32 - 10 CLR None
2017-10-17 13:15 58 36 - 42 - Calm - 30.34 - 10 CLR None
2017-10-17 12:55 57 35 - 43 - Calm - 30.35 - 10 CLR None
2017-10-17 12:35 57 35 - 44 - Calm - 30.36 - 10 CLR None
2017-10-17 12:15 56 35 - 45 - Calm - 30.37 - 10 CLR None
2017-10-17 11:55 55 37 - 51 - Calm - 30.37 - 10 CLR None
2017-10-17 11:35 53 38 - 55 - Calm - 30.38 - 10 CLR None
2017-10-17 11:15 51 40 - 66 - Calm - 30.39 - 10 CLR None
2017-10-17 10:55 47 40 - 76 - Calm - 30.40 - 10 CLR None
2017-10-17 10:35 45 39 - 79 - Calm - 30.40 - 10 CLR None
2017-10-17 10:15 43 39 - 86 - Calm - 30.41 - 10 CLR None
2017-10-17 09:55 41 38 - 91 - Calm - 30.41 - 10 CLR None
2017-10-17 09:35 39 38 - 99 - Calm - 30.41 - 10 SCT002 None
2017-10-17 09:15 37 37 - 99 - Calm - 30.41 - 1 BR OVC002 Variable visibility
2017-10-17 08:55 35 34 - 98 - Calm - 30.41 - 0 FG OVC002 None
2017-10-17 08:35 34 33 - 98 - Calm - 30.41 - 0 FG OVC002 None
2017-10-17 08:15 33 33 - 99 - Calm - 30.39 - 0 FG OVC002 None
2017-10-17 07:55 33 33 - 98 - Calm - 30.39 - 0 FG OVC002 6-hr Min Temp (8am): 32.0°F
6-hr Max Temp (8am): 36.5°F
2017-10-17 07:35 33 33 - 98 - Calm - 30.38 - 0 FG OVC002 None
2017-10-17 07:15 32 32 - 99 - Calm - 30.38 - 0 BR OVC002 None
2017-10-17 06:55 32 32 - 99 - Calm - 30.37 - 7 BKN002 None
2017-10-17 06:35 32 32 - 98 - Calm - 30.36 - 5 BR BKN002 None
2017-10-17 06:10 33 33 - 98 - Calm - 30.36 - 7 CLR None
2017-10-17 05:55 33 33 - 97 - Calm - 30.36 - 7 CLR None
2017-10-17 05:35 33 33 - 97 - Calm - 30.35 - 10 CLR None
2017-10-17 05:15 33 33 - 97 - Calm - 30.34 - 10 CLR None
2017-10-17 04:55 34 33 - 97 - Calm - 30.34 - 10 CLR None
2017-10-17 04:35 34 33 - 97 - Calm - 30.33 - 10 CLR None
2017-10-17 04:15 35 34 - 97 - Calm - 30.32 - 10 CLR None
2017-10-17 03:55 34 34 - 98 - Calm - 30.32 - 10 CLR None

Support USWX by starting your Amazon purchase here.